sensor_id;sensor_type;location;lat;lon;timestamp;P1;durP1;ratioP1;P2;durP2;ratioP2
14231;SDS011;7200;52.194;9.900;2023-12-20T00:00:59;1.30;;;0.80;;
14231;SDS011;7200;52.194;9.900;2023-12-20T00:03:24;2.90;;;2.70;;
14231;SDS011;7200;52.194;9.900;2023-12-20T00:05:49;2.57;;;2.37;;
14231;SDS011;7200;52.194;9.900;2023-12-20T00:08:15;2.50;;;2.40;;
14231;SDS011;7200;52.194;9.900;2023-12-20T00:10:41;2.20;;;2.00;;
14231;SDS011;7200;52.194;9.900;2023-12-20T00:13:06;2.33;;;2.17;;
14231;SDS011;7200;52.194;9.900;2023-12-20T00:15:32;1.07;;;1.00;;
14231;SDS011;7200;52.194;9.900;2023-12-20T00:17:58;1.50;;;1.40;;
14231;SDS011;7200;52.194;9.900;2023-12-20T00:20:23;1.23;;;1.13;;
14231;SDS011;7200;52.194;9.900;2023-12-20T00:22:49;1.07;;;1.00;;
14231;SDS011;7200;52.194;9.900;2023-12-20T00:25:14;2.13;;;2.03;;
14231;SDS011;7200;52.194;9.900;2023-12-20T00:27:39;2.60;;;2.40;;
14231;SDS011;7200;52.194;9.900;2023-12-20T00:30:05;1.23;;;1.13;;
14231;SDS011;7200;52.194;9.900;2023-12-20T00:32:30;1.00;;;0.83;;
14231;SDS011;7200;52.194;9.900;2023-12-20T00:34:56;0.87;;;0.87;;
14231;SDS011;7200;52.194;9.900;2023-12-20T00:37:21;2.10;;;2.00;;
14231;SDS011;7200;52.194;9.900;2023-12-20T00:39:46;2.13;;;1.93;;
14231;SDS011;7200;52.194;9.900;2023-12-20T00:42:12;4.27;;;3.87;;
14231;SDS011;7200;52.194;9.900;2023-12-20T00:44:38;4.20;;;2.60;;
14231;SDS011;7200;52.194;9.900;2023-12-20T00:47:03;2.57;;;2.37;;
14231;SDS011;7200;52.194;9.900;2023-12-20T00:49:29;2.97;;;1.80;;
14231;SDS011;7200;52.194;9.900;2023-12-20T00:51:54;1.60;;;1.50;;
14231;SDS011;7200;52.194;9.900;2023-12-20T00:54:19;1.87;;;1.70;;
14231;SDS011;7200;52.194;9.900;2023-12-20T00:56:44;6.17;;;2.60;;
14231;SDS011;7200;52.194;9.900;2023-12-20T00:59:10;2.00;;;1.90;;
14231;SDS011;7200;52.194;9.900;2023-12-20T01:01:35;2.40;;;1.70;;
14231;SDS011;7200;52.194;9.900;2023-12-20T01:04:01;2.93;;;2.63;;
14231;SDS011;7200;52.194;9.900;2023-12-20T01:06:26;2.27;;;1.57;;
14231;SDS011;7200;52.194;9.900;2023-12-20T01:08:51;2.50;;;1.77;;
14231;SDS011;7200;52.194;9.900;2023-12-20T01:11:16;2.33;;;1.83;;
14231;SDS011;7200;52.194;9.900;2023-12-20T01:13:42;1.13;;;0.93;;
14231;SDS011;7200;52.194;9.900;2023-12-20T01:16:10;1.50;;;1.20;;
14231;SDS011;7200;52.194;9.900;2023-12-20T01:18:36;3.90;;;2.60;;
14231;SDS011;7200;52.194;9.900;2023-12-20T01:21:02;2.13;;;1.47;;
14231;SDS011;7200;52.194;9.900;2023-12-20T01:23:28;1.30;;;1.20;;
14231;SDS011;7200;52.194;9.900;2023-12-20T01:25:53;3.60;;;1.43;;
14231;SDS011;7200;52.194;9.900;2023-12-20T01:28:19;1.53;;;0.93;;
14231;SDS011;7200;52.194;9.900;2023-12-20T01:30:44;1.83;;;0.60;;
14231;SDS011;7200;52.194;9.900;2023-12-20T01:33:09;0.57;;;0.57;;
14231;SDS011;7200;52.194;9.900;2023-12-20T01:35:35;1.90;;;0.50;;
14231;SDS011;7200;52.194;9.900;2023-12-20T01:38:00;0.43;;;0.23;;
14231;SDS011;7200;52.194;9.900;2023-12-20T01:40:25;3.20;;;0.97;;
14231;SDS011;7200;52.194;9.900;2023-12-20T01:43:00;0.67;;;0.53;;
14231;SDS011;7200;52.194;9.900;2023-12-20T01:45:27;2.17;;;0.17;;
14231;SDS011;7200;52.194;9.900;2023-12-20T01:47:52;0.07;;;0.07;;
14231;SDS011;7200;52.194;9.900;2023-12-20T01:50:19;0.00;;;0.00;;
14231;SDS011;7200;52.194;9.900;2023-12-20T01:52:45;4.80;;;0.53;;
14231;SDS011;7200;52.194;9.900;2023-12-20T01:55:11;0.83;;;0.43;;
14231;SDS011;7200;52.194;9.900;2023-12-20T01:57:40;0.03;;;0.03;;
14231;SDS011;7200;52.194;9.900;2023-12-20T02:00:06;0.70;;;0.40;;
14231;SDS011;7200;52.194;9.900;2023-12-20T02:02:34;1.33;;;0.37;;
14231;SDS011;7200;52.194;9.900;2023-12-20T02:05:04;0.40;;;0.30;;
14231;SDS011;7200;52.194;9.900;2023-12-20T02:07:31;0.10;;;0.10;;
14231;SDS011;7200;52.194;9.900;2023-12-20T02:09:56;7.03;;;0.97;;
14231;SDS011;7200;52.194;9.900;2023-12-20T02:12:21;0.00;;;0.00;;
14231;SDS011;7200;52.194;9.900;2023-12-20T02:14:47;0.10;;;0.00;;
14231;SDS011;7200;52.194;9.900;2023-12-20T02:17:12;0.33;;;0.17;;
14231;SDS011;7200;52.194;9.900;2023-12-20T02:19:37;0.33;;;0.33;;
14231;SDS011;7200;52.194;9.900;2023-12-20T02:22:09;3.20;;;0.50;;
14231;SDS011;7200;52.194;9.900;2023-12-20T02:24:35;1.23;;;0.40;;
14231;SDS011;7200;52.194;9.900;2023-12-20T02:27:01;0.00;;;0.00;;
14231;SDS011;7200;52.194;9.900;2023-12-20T02:29:26;0.10;;;0.10;;
14231;SDS011;7200;52.194;9.900;2023-12-20T02:31:52;0.10;;;0.10;;
14231;SDS011;7200;52.194;9.900;2023-12-20T02:34:17;0.10;;;0.10;;
14231;SDS011;7200;52.194;9.900;2023-12-20T02:36:42;0.00;;;0.00;;
14231;SDS011;7200;52.194;9.900;2023-12-20T02:39:07;0.00;;;0.00;;
14231;SDS011;7200;52.194;9.900;2023-12-20T02:41:33;0.17;;;0.17;;
14231;SDS011;7200;52.194;9.900;2023-12-20T02:43:58;0.00;;;0.00;;
14231;SDS011;7200;52.194;9.900;2023-12-20T02:46:23;0.67;;;0.43;;
14231;SDS011;7200;52.194;9.900;2023-12-20T02:48:49;5.97;;;1.57;;
14231;SDS011;7200;52.194;9.900;2023-12-20T02:51:14;2.47;;;0.73;;
14231;SDS011;7200;52.194;9.900;2023-12-20T02:53:39;0.50;;;0.50;;
14231;SDS011;7200;52.194;9.900;2023-12-20T02:56:05;1.90;;;0.50;;
14231;SDS011;7200;52.194;9.900;2023-12-20T02:58:30;3.93;;;0.93;;
14231;SDS011;7200;52.194;9.900;2023-12-20T03:00:55;2.30;;;0.77;;
14231;SDS011;7200;52.194;9.900;2023-12-20T03:03:22;0.83;;;0.50;;
14231;SDS011;7200;52.194;9.900;2023-12-20T03:05:48;3.30;;;0.40;;
14231;SDS011;7200;52.194;9.900;2023-12-20T03:08:13;0.60;;;0.40;;
14231;SDS011;7200;52.194;9.900;2023-12-20T03:10:38;2.27;;;0.57;;
14231;SDS011;7200;52.194;9.900;2023-12-20T03:13:03;0.47;;;0.30;;
14231;SDS011;7200;52.194;9.900;2023-12-20T03:15:29;1.50;;;0.43;;
14231;SDS011;7200;52.194;9.900;2023-12-20T03:17:54;0.40;;;0.40;;
14231;SDS011;7200;52.194;9.900;2023-12-20T03:20:19;1.23;;;0.20;;
14231;SDS011;7200;52.194;9.900;2023-12-20T03:22:45;1.70;;;0.57;;
14231;SDS011;7200;52.194;9.900;2023-12-20T03:25:10;0.83;;;0.33;;
14231;SDS011;7200;52.194;9.900;2023-12-20T03:27:38;1.57;;;0.57;;
14231;SDS011;7200;52.194;9.900;2023-12-20T03:30:04;0.73;;;0.40;;
14231;SDS011;7200;52.194;9.900;2023-12-20T03:32:30;1.90;;;0.30;;
14231;SDS011;7200;52.194;9.900;2023-12-20T03:34:55;0.77;;;0.43;;
14231;SDS011;7200;52.194;9.900;2023-12-20T03:37:21;2.73;;;1.00;;
14231;SDS011;7200;52.194;9.900;2023-12-20T03:39:46;0.87;;;0.73;;
14231;SDS011;7200;52.194;9.900;2023-12-20T03:42:12;3.17;;;1.53;;
14231;SDS011;7200;52.194;9.900;2023-12-20T03:44:38;3.80;;;0.90;;
14231;SDS011;7200;52.194;9.900;2023-12-20T03:47:04;1.67;;;0.40;;
14231;SDS011;7200;52.194;9.900;2023-12-20T03:49:29;5.60;;;1.40;;
14231;SDS011;7200;52.194;9.900;2023-12-20T03:51:55;5.10;;;0.70;;
14231;SDS011;7200;52.194;9.900;2023-12-20T03:54:20;4.87;;;1.17;;
14231;SDS011;7200;52.194;9.900;2023-12-20T03:56:45;2.40;;;1.50;;
14231;SDS011;7200;52.194;9.900;2023-12-20T03:59:10;1.10;;;0.93;;
14231;SDS011;7200;52.194;9.900;2023-12-20T04:01:36;3.27;;;1.40;;
14231;SDS011;7200;52.194;9.900;2023-12-20T04:04:01;1.57;;;0.70;;
14231;SDS011;7200;52.194;9.900;2023-12-20T04:06:26;0.67;;;0.53;;
14231;SDS011;7200;52.194;9.900;2023-12-20T04:08:51;2.83;;;1.07;;
14231;SDS011;7200;52.194;9.900;2023-12-20T04:11:17;3.07;;;0.73;;
14231;SDS011;7200;52.194;9.900;2023-12-20T04:13:42;0.77;;;0.73;;
14231;SDS011;7200;52.194;9.900;2023-12-20T04:16:07;3.30;;;0.83;;
14231;SDS011;7200;52.194;9.900;2023-12-20T04:18:33;0.83;;;0.53;;
14231;SDS011;7200;52.194;9.900;2023-12-20T04:20:58;0.70;;;0.70;;
14231;SDS011;7200;52.194;9.900;2023-12-20T04:23:23;1.63;;;0.53;;
14231;SDS011;7200;52.194;9.900;2023-12-20T04:25:49;6.13;;;1.30;;
14231;SDS011;7200;52.194;9.900;2023-12-20T04:28:14;1.20;;;0.60;;
14231;SDS011;7200;52.194;9.900;2023-12-20T04:30:39;4.00;;;1.80;;
14231;SDS011;7200;52.194;9.900;2023-12-20T04:33:04;4.13;;;0.90;;
14231;SDS011;7200;52.194;9.900;2023-12-20T04:35:30;4.00;;;1.03;;
14231;SDS011;7200;52.194;9.900;2023-12-20T04:37:55;5.13;;;1.17;;
14231;SDS011;7200;52.194;9.900;2023-12-20T04:40:20;2.37;;;0.60;;
14231;SDS011;7200;52.194;9.900;2023-12-20T04:42:45;6.20;;;1.30;;
14231;SDS011;7200;52.194;9.900;2023-12-20T04:45:11;4.33;;;1.20;;
14231;SDS011;7200;52.194;9.900;2023-12-20T04:47:38;3.90;;;1.40;;
14231;SDS011;7200;52.194;9.900;2023-12-20T04:50:03;4.07;;;1.30;;
14231;SDS011;7200;52.194;9.900;2023-12-20T04:52:29;5.40;;;1.83;;
14231;SDS011;7200;52.194;9.900;2023-12-20T04:54:55;6.43;;;1.10;;
14231;SDS011;7200;52.194;9.900;2023-12-20T04:57:21;0.83;;;0.77;;
14231;SDS011;7200;52.194;9.900;2023-12-20T04:59:46;6.17;;;1.70;;
14231;SDS011;7200;52.194;9.900;2023-12-20T05:02:12;2.27;;;1.37;;
14231;SDS011;7200;52.194;9.900;2023-12-20T05:04:37;8.13;;;2.20;;
14231;SDS011;7200;52.194;9.900;2023-12-20T05:07:02;4.57;;;1.33;;
14231;SDS011;7200;52.194;9.900;2023-12-20T05:09:29;2.27;;;0.73;;
14231;SDS011;7200;52.194;9.900;2023-12-20T05:11:55;4.33;;;1.67;;
14231;SDS011;7200;52.194;9.900;2023-12-20T05:14:20;0.77;;;0.53;;
14231;SDS011;7200;52.194;9.900;2023-12-20T05:16:45;3.30;;;1.70;;
14231;SDS011;7200;52.194;9.900;2023-12-20T05:19:10;11.70;;;2.20;;
14231;SDS011;7200;52.194;9.900;2023-12-20T05:21:36;7.47;;;2.33;;
14231;SDS011;7200;52.194;9.900;2023-12-20T05:24:01;1.00;;;0.70;;
14231;SDS011;7200;52.194;9.900;2023-12-20T05:26:26;1.23;;;0.90;;
14231;SDS011;7200;52.194;9.900;2023-12-20T05:28:52;2.07;;;1.30;;
14231;SDS011;7200;52.194;9.900;2023-12-20T05:31:17;4.10;;;1.70;;
14231;SDS011;7200;52.194;9.900;2023-12-20T05:33:42;6.30;;;1.83;;
14231;SDS011;7200;52.194;9.900;2023-12-20T05:36:08;2.10;;;1.20;;
14231;SDS011;7200;52.194;9.900;2023-12-20T05:38:36;3.13;;;1.37;;
14231;SDS011;7200;52.194;9.900;2023-12-20T05:41:01;2.50;;;1.00;;
14231;SDS011;7200;52.194;9.900;2023-12-20T05:43:27;5.43;;;2.03;;
14231;SDS011;7200;52.194;9.900;2023-12-20T05:45:52;5.27;;;2.10;;
14231;SDS011;7200;52.194;9.900;2023-12-20T05:48:17;7.77;;;1.70;;
14231;SDS011;7200;52.194;9.900;2023-12-20T05:50:42;2.63;;;1.80;;
14231;SDS011;7200;52.194;9.900;2023-12-20T05:53:08;2.67;;;2.03;;
14231;SDS011;7200;52.194;9.900;2023-12-20T05:55:33;3.60;;;0.60;;
14231;SDS011;7200;52.194;9.900;2023-12-20T05:57:59;5.17;;;1.80;;
14231;SDS011;7200;52.194;9.900;2023-12-20T06:00:24;1.57;;;1.47;;
14231;SDS011;7200;52.194;9.900;2023-12-20T06:02:50;5.03;;;1.77;;
14231;SDS011;7200;52.194;9.900;2023-12-20T06:05:15;3.70;;;1.67;;
14231;SDS011;7200;52.194;9.900;2023-12-20T06:07:40;6.67;;;1.50;;
14231;SDS011;7200;52.194;9.900;2023-12-20T06:10:06;3.00;;;2.00;;
14231;SDS011;7200;52.194;9.900;2023-12-20T06:12:31;2.87;;;1.57;;
14231;SDS011;7200;52.194;9.900;2023-12-20T06:14:58;0.50;;;0.50;;
14231;SDS011;7200;52.194;9.900;2023-12-20T06:17:23;0.20;;;0.20;;
14231;SDS011;7200;52.194;9.900;2023-12-20T06:19:49;1.93;;;1.20;;
14231;SDS011;7200;52.194;9.900;2023-12-20T06:22:14;3.97;;;1.60;;
14231;SDS011;7200;52.194;9.900;2023-12-20T06:24:40;6.07;;;1.93;;
14231;SDS011;7200;52.194;9.900;2023-12-20T06:27:05;13.57;;;2.07;;
14231;SDS011;7200;52.194;9.900;2023-12-20T06:29:31;13.90;;;3.07;;
14231;SDS011;7200;52.194;9.900;2023-12-20T06:31:56;4.70;;;2.23;;
14231;SDS011;7200;52.194;9.900;2023-12-20T06:34:21;2.43;;;1.77;;
14231;SDS011;7200;52.194;9.900;2023-12-20T06:36:47;7.13;;;1.77;;
14231;SDS011;7200;52.194;9.900;2023-12-20T06:39:12;4.60;;;1.13;;
14231;SDS011;7200;52.194;9.900;2023-12-20T06:41:37;3.70;;;1.33;;
14231;SDS011;7200;52.194;9.900;2023-12-20T06:44:03;11.80;;;1.57;;
14231;SDS011;7200;52.194;9.900;2023-12-20T06:46:28;3.90;;;2.07;;
14231;SDS011;7200;52.194;9.900;2023-12-20T06:48:53;5.60;;;1.90;;
14231;SDS011;7200;52.194;9.900;2023-12-20T06:51:19;5.80;;;1.43;;
14231;SDS011;7200;52.194;9.900;2023-12-20T06:53:45;6.00;;;1.80;;
14231;SDS011;7200;52.194;9.900;2023-12-20T06:56:10;5.83;;;2.67;;
14231;SDS011;7200;52.194;9.900;2023-12-20T06:58:39;5.43;;;1.67;;
14231;SDS011;7200;52.194;9.900;2023-12-20T07:01:05;3.73;;;1.60;;
14231;SDS011;7200;52.194;9.900;2023-12-20T07:03:30;4.17;;;1.93;;
14231;SDS011;7200;52.194;9.900;2023-12-20T07:05:55;2.80;;;1.60;;
14231;SDS011;7200;52.194;9.900;2023-12-20T07:08:21;4.27;;;1.87;;
14231;SDS011;7200;52.194;9.900;2023-12-20T07:10:46;2.50;;;2.30;;
14231;SDS011;7200;52.194;9.900;2023-12-20T07:13:11;4.37;;;1.30;;
14231;SDS011;7200;52.194;9.900;2023-12-20T07:15:37;3.90;;;2.40;;
14231;SDS011;7200;52.194;9.900;2023-12-20T07:18:02;3.57;;;1.50;;
14231;SDS011;7200;52.194;9.900;2023-12-20T07:20:28;7.23;;;1.73;;
14231;SDS011;7200;52.194;9.900;2023-12-20T07:22:53;4.60;;;1.93;;
14231;SDS011;7200;52.194;9.900;2023-12-20T07:25:18;6.80;;;2.33;;
14231;SDS011;7200;52.194;9.900;2023-12-20T07:27:45;6.07;;;1.60;;
14231;SDS011;7200;52.194;9.900;2023-12-20T07:30:10;4.60;;;1.70;;
14231;SDS011;7200;52.194;9.900;2023-12-20T07:32:36;4.83;;;1.77;;
14231;SDS011;7200;52.194;9.900;2023-12-20T07:35:01;3.50;;;1.27;;
14231;SDS011;7200;52.194;9.900;2023-12-20T07:37:27;10.20;;;2.60;;
14231;SDS011;7200;52.194;9.900;2023-12-20T07:39:53;6.23;;;2.17;;
14231;SDS011;7200;52.194;9.900;2023-12-20T07:42:18;3.13;;;1.50;;
14231;SDS011;7200;52.194;9.900;2023-12-20T07:44:43;7.10;;;1.97;;
14231;SDS011;7200;52.194;9.900;2023-12-20T07:47:09;6.73;;;2.03;;
14231;SDS011;7200;52.194;9.900;2023-12-20T07:49:34;5.70;;;1.83;;
14231;SDS011;7200;52.194;9.900;2023-12-20T07:51:59;5.33;;;1.80;;
14231;SDS011;7200;52.194;9.900;2023-12-20T07:54:24;5.80;;;2.90;;
14231;SDS011;7200;52.194;9.900;2023-12-20T07:56:50;6.77;;;2.50;;
14231;SDS011;7200;52.194;9.900;2023-12-20T07:59:15;3.50;;;1.50;;
14231;SDS011;7200;52.194;9.900;2023-12-20T08:01:41;1.90;;;1.47;;
14231;SDS011;7200;52.194;9.900;2023-12-20T08:04:07;3.03;;;1.37;;
14231;SDS011;7200;52.194;9.900;2023-12-20T08:06:33;10.00;;;2.80;;
14231;SDS011;7200;52.194;9.900;2023-12-20T08:08:58;8.33;;;1.93;;
14231;SDS011;7200;52.194;9.900;2023-12-20T08:11:23;3.47;;;1.80;;
14231;SDS011;7200;52.194;9.900;2023-12-20T08:13:48;4.30;;;1.97;;
14231;SDS011;7200;52.194;9.900;2023-12-20T08:16:14;6.43;;;3.37;;
14231;SDS011;7200;52.194;9.900;2023-12-20T08:18:40;8.40;;;3.10;;
14231;SDS011;7200;52.194;9.900;2023-12-20T08:21:06;6.97;;;3.63;;
14231;SDS011;7200;52.194;9.900;2023-12-20T08:23:34;13.93;;;3.27;;
14231;SDS011;7200;52.194;9.900;2023-12-20T08:26:03;6.30;;;2.17;;
14231;SDS011;7200;52.194;9.900;2023-12-20T08:28:33;6.43;;;3.07;;
14231;SDS011;7200;52.194;9.900;2023-12-20T08:30:58;8.63;;;2.93;;
14231;SDS011;7200;52.194;9.900;2023-12-20T08:33:24;8.47;;;3.43;;
14231;SDS011;7200;52.194;9.900;2023-12-20T08:35:49;4.73;;;2.30;;
14231;SDS011;7200;52.194;9.900;2023-12-20T08:38:14;8.23;;;3.13;;
14231;SDS011;7200;52.194;9.900;2023-12-20T08:40:40;9.10;;;2.07;;
14231;SDS011;7200;52.194;9.900;2023-12-20T08:43:05;7.63;;;1.77;;
14231;SDS011;7200;52.194;9.900;2023-12-20T08:45:30;6.47;;;1.80;;
14231;SDS011;7200;52.194;9.900;2023-12-20T08:47:55;3.40;;;2.70;;
14231;SDS011;7200;52.194;9.900;2023-12-20T08:50:21;7.77;;;3.80;;
14231;SDS011;7200;52.194;9.900;2023-12-20T08:52:46;6.20;;;2.93;;
14231;SDS011;7200;52.194;9.900;2023-12-20T08:55:11;10.13;;;3.17;;
14231;SDS011;7200;52.194;9.900;2023-12-20T08:57:37;1.97;;;1.57;;
14231;SDS011;7200;52.194;9.900;2023-12-20T09:00:03;2.27;;;1.13;;
14231;SDS011;7200;52.194;9.900;2023-12-20T09:02:29;3.93;;;2.10;;
14231;SDS011;7200;52.194;9.900;2023-12-20T09:04:54;3.17;;;1.90;;
14231;SDS011;7200;52.194;9.900;2023-12-20T09:07:29;3.13;;;1.60;;
14231;SDS011;7200;52.194;9.900;2023-12-20T09:09:58;1.27;;;1.00;;
14231;SDS011;7200;52.194;9.900;2023-12-20T09:12:23;2.07;;;1.50;;
14231;SDS011;7200;52.194;9.900;2023-12-20T09:14:50;4.87;;;2.40;;
14231;SDS011;7200;52.194;9.900;2023-12-20T09:17:16;3.87;;;2.30;;
14231;SDS011;7200;52.194;9.900;2023-12-20T09:19:42;11.20;;;2.90;;
14231;SDS011;7200;52.194;9.900;2023-12-20T09:22:11;5.27;;;2.17;;
14231;SDS011;7200;52.194;9.900;2023-12-20T09:24:36;6.03;;;1.80;;
14231;SDS011;7200;52.194;9.900;2023-12-20T09:27:03;8.13;;;2.73;;
14231;SDS011;7200;52.194;9.900;2023-12-20T09:29:29;3.83;;;1.83;;
14231;SDS011;7200;52.194;9.900;2023-12-20T09:31:55;4.30;;;1.80;;
14231;SDS011;7200;52.194;9.900;2023-12-20T09:34:22;5.70;;;2.40;;
14231;SDS011;7200;52.194;9.900;2023-12-20T09:36:47;8.53;;;2.67;;
14231;SDS011;7200;52.194;9.900;2023-12-20T09:39:13;6.83;;;2.30;;
14231;SDS011;7200;52.194;9.900;2023-12-20T09:41:41;3.77;;;1.57;;
14231;SDS011;7200;52.194;9.900;2023-12-20T09:44:11;10.17;;;2.03;;
14231;SDS011;7200;52.194;9.900;2023-12-20T09:46:39;7.07;;;2.60;;
14231;SDS011;7200;52.194;9.900;2023-12-20T09:49:08;3.00;;;1.53;;
14231;SDS011;7200;52.194;9.900;2023-12-20T09:51:35;5.57;;;1.90;;
14231;SDS011;7200;52.194;9.900;2023-12-20T09:54:02;4.60;;;2.13;;
14231;SDS011;7200;52.194;9.900;2023-12-20T09:56:29;5.67;;;2.33;;
14231;SDS011;7200;52.194;9.900;2023-12-20T09:58:54;4.40;;;1.53;;
14231;SDS011;7200;52.194;9.900;2023-12-20T10:01:20;8.47;;;2.80;;
14231;SDS011;7200;52.194;9.900;2023-12-20T10:03:46;6.40;;;2.23;;
14231;SDS011;7200;52.194;9.900;2023-12-20T10:06:11;3.80;;;1.10;;
14231;SDS011;7200;52.194;9.900;2023-12-20T10:08:37;7.13;;;2.70;;
14231;SDS011;7200;52.194;9.900;2023-12-20T10:11:04;3.20;;;1.67;;
14231;SDS011;7200;52.194;9.900;2023-12-20T10:13:30;0.97;;;0.53;;
14231;SDS011;7200;52.194;9.900;2023-12-20T10:15:55;2.97;;;1.17;;
14231;SDS011;7200;52.194;9.900;2023-12-20T10:18:21;5.27;;;2.20;;
14231;SDS011;7200;52.194;9.900;2023-12-20T10:20:46;2.50;;;1.40;;
14231;SDS011;7200;52.194;9.900;2023-12-20T10:23:12;6.30;;;2.27;;
14231;SDS011;7200;52.194;9.900;2023-12-20T10:25:38;5.47;;;2.07;;
14231;SDS011;7200;52.194;9.900;2023-12-20T10:28:13;5.73;;;2.33;;
14231;SDS011;7200;52.194;9.900;2023-12-20T10:30:47;5.47;;;2.83;;
14231;SDS011;7200;52.194;9.900;2023-12-20T10:33:13;5.20;;;3.40;;
14231;SDS011;7200;52.194;9.900;2023-12-20T10:35:38;3.30;;;1.97;;
14231;SDS011;7200;52.194;9.900;2023-12-20T10:38:05;5.10;;;3.20;;
14231;SDS011;7200;52.194;9.900;2023-12-20T10:40:32;4.37;;;2.50;;
14231;SDS011;7200;52.194;9.900;2023-12-20T10:43:01;5.47;;;3.27;;
14231;SDS011;7200;52.194;9.900;2023-12-20T10:45:27;7.73;;;3.90;;
14231;SDS011;7200;52.194;9.900;2023-12-20T10:47:52;6.20;;;3.47;;
14231;SDS011;7200;52.194;9.900;2023-12-20T10:50:19;6.73;;;4.10;;
14231;SDS011;7200;52.194;9.900;2023-12-20T10:52:44;6.37;;;4.07;;
14231;SDS011;7200;52.194;9.900;2023-12-20T10:55:11;4.47;;;3.27;;
14231;SDS011;7200;52.194;9.900;2023-12-20T10:57:37;7.10;;;3.17;;
14231;SDS011;7200;52.194;9.900;2023-12-20T11:00:03;6.47;;;4.63;;
14231;SDS011;7200;52.194;9.900;2023-12-20T11:02:32;5.90;;;3.03;;
14231;SDS011;7200;52.194;9.900;2023-12-20T11:10:09;7.40;;;3.67;;
14231;SDS011;7200;52.194;9.900;2023-12-20T11:12:52;8.60;;;3.10;;
14231;SDS011;7200;52.194;9.900;2023-12-20T11:15:22;8.00;;;4.00;;
14231;SDS011;7200;52.194;9.900;2023-12-20T11:17:55;8.40;;;5.03;;
14231;SDS011;7200;52.194;9.900;2023-12-20T11:20:35;7.77;;;5.40;;
14231;SDS011;7200;52.194;9.900;2023-12-20T11:23:02;7.07;;;4.97;;
14231;SDS011;7200;52.194;9.900;2023-12-20T11:25:27;4.40;;;3.97;;
14231;SDS011;7200;52.194;9.900;2023-12-20T11:28:09;3.90;;;3.43;;
14231;SDS011;7200;52.194;9.900;2023-12-20T11:30:41;8.03;;;5.43;;
14231;SDS011;7200;52.194;9.900;2023-12-20T11:33:15;7.03;;;4.77;;
14231;SDS011;7200;52.194;9.900;2023-12-20T11:35:41;5.53;;;4.57;;
14231;SDS011;7200;52.194;9.900;2023-12-20T11:38:07;12.00;;;3.17;;
14231;SDS011;7200;52.194;9.900;2023-12-20T11:40:36;8.80;;;4.47;;
14231;SDS011;7200;52.194;9.900;2023-12-20T11:43:01;8.67;;;4.17;;
14231;SDS011;7200;52.194;9.900;2023-12-20T11:45:28;8.43;;;4.60;;
14231;SDS011;7200;52.194;9.900;2023-12-20T11:47:53;4.33;;;3.17;;
14231;SDS011;7200;52.194;9.900;2023-12-20T11:50:19;3.07;;;2.77;;
14231;SDS011;7200;52.194;9.900;2023-12-20T11:52:45;8.80;;;3.10;;
14231;SDS011;7200;52.194;9.900;2023-12-20T11:55:11;6.73;;;4.73;;
14231;SDS011;7200;52.194;9.900;2023-12-20T11:57:37;6.00;;;2.10;;
14231;SDS011;7200;52.194;9.900;2023-12-20T12:00:03;4.37;;;3.53;;
14231;SDS011;7200;52.194;9.900;2023-12-20T12:02:29;2.77;;;2.27;;
14231;SDS011;7200;52.194;9.900;2023-12-20T12:04:55;3.93;;;2.97;;
14231;SDS011;7200;52.194;9.900;2023-12-20T12:07:21;3.40;;;2.37;;
14231;SDS011;7200;52.194;9.900;2023-12-20T12:09:47;4.90;;;1.90;;
14231;SDS011;7200;52.194;9.900;2023-12-20T12:12:12;3.70;;;2.00;;
14231;SDS011;7200;52.194;9.900;2023-12-20T12:14:38;1.67;;;0.63;;
14231;SDS011;7200;52.194;9.900;2023-12-20T12:17:09;1.17;;;0.63;;
14231;SDS011;7200;52.194;9.900;2023-12-20T12:19:36;1.07;;;0.33;;
14231;SDS011;7200;52.194;9.900;2023-12-20T12:22:05;0.70;;;0.33;;
14231;SDS011;7200;52.194;9.900;2023-12-20T12:24:33;2.23;;;0.70;;
14231;SDS011;7200;52.194;9.900;2023-12-20T12:26:59;1.33;;;0.47;;
14231;SDS011;7200;52.194;9.900;2023-12-20T12:29:24;1.20;;;0.50;;
14231;SDS011;7200;52.194;9.900;2023-12-20T12:31:49;0.30;;;0.20;;
14231;SDS011;7200;52.194;9.900;2023-12-20T12:34:16;0.83;;;0.30;;
14231;SDS011;7200;52.194;9.900;2023-12-20T12:36:42;1.37;;;0.23;;
14231;SDS011;7200;52.194;9.900;2023-12-20T12:39:08;0.97;;;0.27;;
14231;SDS011;7200;52.194;9.900;2023-12-20T12:41:33;0.40;;;0.30;;
14231;SDS011;7200;52.194;9.900;2023-12-20T12:43:58;0.93;;;0.20;;
14231;SDS011;7200;52.194;9.900;2023-12-20T12:46:24;0.40;;;0.30;;
14231;SDS011;7200;52.194;9.900;2023-12-20T12:48:49;0.57;;;0.40;;
14231;SDS011;7200;52.194;9.900;2023-12-20T12:51:15;1.50;;;0.57;;
14231;SDS011;7200;52.194;9.900;2023-12-20T12:53:41;0.93;;;0.60;;
14231;SDS011;7200;52.194;9.900;2023-12-20T12:56:06;1.00;;;0.33;;
14231;SDS011;7200;52.194;9.900;2023-12-20T12:58:32;4.37;;;1.27;;
14231;SDS011;7200;52.194;9.900;2023-12-20T13:00:58;0.80;;;0.40;;
14231;SDS011;7200;52.194;9.900;2023-12-20T13:03:23;0.47;;;0.30;;
14231;SDS011;7200;52.194;9.900;2023-12-20T13:05:49;2.20;;;0.50;;
14231;SDS011;7200;52.194;9.900;2023-12-20T13:08:14;0.70;;;0.30;;
14231;SDS011;7200;52.194;9.900;2023-12-20T13:10:40;0.87;;;0.30;;
14231;SDS011;7200;52.194;9.900;2023-12-20T13:13:05;0.20;;;0.10;;
14231;SDS011;7200;52.194;9.900;2023-12-20T13:15:31;1.30;;;0.50;;
14231;SDS011;7200;52.194;9.900;2023-12-20T13:17:56;0.70;;;0.37;;
14231;SDS011;7200;52.194;9.900;2023-12-20T13:20:21;0.63;;;0.33;;
14231;SDS011;7200;52.194;9.900;2023-12-20T13:22:47;0.37;;;0.13;;
14231;SDS011;7200;52.194;9.900;2023-12-20T13:25:13;1.27;;;0.57;;
14231;SDS011;7200;52.194;9.900;2023-12-20T13:27:38;0.43;;;0.40;;
14231;SDS011;7200;52.194;9.900;2023-12-20T13:30:04;1.93;;;0.80;;
14231;SDS011;7200;52.194;9.900;2023-12-20T13:32:30;0.87;;;0.20;;
14231;SDS011;7200;52.194;9.900;2023-12-20T13:34:55;0.00;;;0.00;;
14231;SDS011;7200;52.194;9.900;2023-12-20T13:37:21;0.40;;;0.20;;
14231;SDS011;7200;52.194;9.900;2023-12-20T13:39:46;0.40;;;0.13;;
14231;SDS011;7200;52.194;9.900;2023-12-20T13:42:11;0.77;;;0.50;;
14231;SDS011;7200;52.194;9.900;2023-12-20T13:44:37;1.83;;;0.40;;
14231;SDS011;7200;52.194;9.900;2023-12-20T13:47:02;1.60;;;0.70;;
14231;SDS011;7200;52.194;9.900;2023-12-20T13:49:28;1.47;;;0.63;;
14231;SDS011;7200;52.194;9.900;2023-12-20T13:51:53;1.13;;;0.37;;
14231;SDS011;7200;52.194;9.900;2023-12-20T13:54:19;0.33;;;0.30;;
14231;SDS011;7200;52.194;9.900;2023-12-20T13:56:47;0.20;;;0.20;;
14231;SDS011;7200;52.194;9.900;2023-12-20T13:59:12;1.87;;;0.53;;
14231;SDS011;7200;52.194;9.900;2023-12-20T14:01:38;1.77;;;0.70;;
14231;SDS011;7200;52.194;9.900;2023-12-20T14:04:04;0.57;;;0.53;;
14231;SDS011;7200;52.194;9.900;2023-12-20T14:06:29;1.43;;;0.63;;
14231;SDS011;7200;52.194;9.900;2023-12-20T14:08:54;1.07;;;0.37;;
14231;SDS011;7200;52.194;9.900;2023-12-20T14:11:20;1.23;;;0.57;;
14231;SDS011;7200;52.194;9.900;2023-12-20T14:13:45;0.70;;;0.60;;
14231;SDS011;7200;52.194;9.900;2023-12-20T14:16:10;2.23;;;1.20;;
14231;SDS011;7200;52.194;9.900;2023-12-20T14:18:36;1.37;;;0.70;;
14231;SDS011;7200;52.194;9.900;2023-12-20T14:21:01;1.27;;;0.73;;
14231;SDS011;7200;52.194;9.900;2023-12-20T14:23:27;1.47;;;1.00;;
14231;SDS011;7200;52.194;9.900;2023-12-20T14:25:52;4.57;;;0.77;;
14231;SDS011;7200;52.194;9.900;2023-12-20T14:28:17;1.83;;;0.77;;
14231;SDS011;7200;52.194;9.900;2023-12-20T14:30:43;1.83;;;0.90;;
14231;SDS011;7200;52.194;9.900;2023-12-20T14:33:08;4.80;;;1.20;;
14231;SDS011;7200;52.194;9.900;2023-12-20T14:35:33;1.80;;;1.23;;
14231;SDS011;7200;52.194;9.900;2023-12-20T14:37:58;1.50;;;1.13;;
14231;SDS011;7200;52.194;9.900;2023-12-20T14:40:24;1.10;;;0.90;;
14231;SDS011;7200;52.194;9.900;2023-12-20T14:42:50;2.67;;;1.30;;
14231;SDS011;7200;52.194;9.900;2023-12-20T14:45:16;3.13;;;1.50;;
14231;SDS011;7200;52.194;9.900;2023-12-20T14:47:42;2.93;;;1.33;;
14231;SDS011;7200;52.194;9.900;2023-12-20T14:50:07;3.03;;;1.03;;
14231;SDS011;7200;52.194;9.900;2023-12-20T14:52:33;5.70;;;1.57;;
14231;SDS011;7200;52.194;9.900;2023-12-20T14:54:59;6.80;;;1.70;;
14231;SDS011;7200;52.194;9.900;2023-12-20T14:57:25;1.43;;;0.80;;